sensor_id;sensor_type;location;lat;lon;timestamp;P1;durP1;ratioP1;P2;durP2;ratioP2
3299;SDS011;1662;49.310;8.134;2024-01-10T00:02:00;21.23;;;12.23;;
3299;SDS011;1662;49.310;8.134;2024-01-10T00:04:26;15.60;;;11.37;;
3299;SDS011;1662;49.310;8.134;2024-01-10T00:06:52;17.13;;;12.87;;
3299;SDS011;1662;49.310;8.134;2024-01-10T00:09:17;19.80;;;13.57;;
3299;SDS011;1662;49.310;8.134;2024-01-10T00:11:43;17.80;;;12.90;;
3299;SDS011;1662;49.310;8.134;2024-01-10T00:14:08;20.67;;;12.80;;
3299;SDS011;1662;49.310;8.134;2024-01-10T00:16:34;17.20;;;12.73;;
3299;SDS011;1662;49.310;8.134;2024-01-10T00:19:00;17.77;;;11.60;;
3299;SDS011;1662;49.310;8.134;2024-01-10T00:21:26;18.80;;;13.60;;
3299;SDS011;1662;49.310;8.134;2024-01-10T00:23:51;20.87;;;12.47;;
3299;SDS011;1662;49.310;8.134;2024-01-10T00:26:17;16.50;;;12.10;;
3299;SDS011;1662;49.310;8.134;2024-01-10T00:28:43;16.73;;;11.47;;
3299;SDS011;1662;49.310;8.134;2024-01-10T00:31:11;15.93;;;12.32;;
3299;SDS011;1662;49.310;8.134;2024-01-10T00:33:37;20.67;;;13.55;;
3299;SDS011;1662;49.310;8.134;2024-01-10T00:36:02;17.97;;;12.30;;
3299;SDS011;1662;49.310;8.134;2024-01-10T00:38:28;21.23;;;13.17;;
3299;SDS011;1662;49.310;8.134;2024-01-10T00:40:53;19.40;;;12.90;;
3299;SDS011;1662;49.310;8.134;2024-01-10T00:43:21;17.73;;;13.02;;
3299;SDS011;1662;49.310;8.134;2024-01-10T00:45:46;17.97;;;12.40;;
3299;SDS011;1662;49.310;8.134;2024-01-10T00:48:12;16.93;;;12.33;;
3299;SDS011;1662;49.310;8.134;2024-01-10T00:50:37;22.00;;;12.33;;
3299;SDS011;1662;49.310;8.134;2024-01-10T00:53:03;18.43;;;11.70;;
3299;SDS011;1662;49.310;8.134;2024-01-10T00:55:29;22.47;;;12.03;;
3299;SDS011;1662;49.310;8.134;2024-01-10T00:57:54;14.03;;;11.63;;
3299;SDS011;1662;49.310;8.134;2024-01-10T01:00:22;18.30;;;12.60;;
3299;SDS011;1662;49.310;8.134;2024-01-10T01:02:47;19.93;;;12.20;;
3299;SDS011;1662;49.310;8.134;2024-01-10T01:05:13;16.07;;;11.07;;
3299;SDS011;1662;49.310;8.134;2024-01-10T01:07:39;18.40;;;12.53;;
3299;SDS011;1662;49.310;8.134;2024-01-10T01:10:05;20.60;;;13.20;;
3299;SDS011;1662;49.310;8.134;2024-01-10T01:12:33;13.10;;;10.90;;
3299;SDS011;1662;49.310;8.134;2024-01-10T01:14:59;16.10;;;11.47;;
3299;SDS011;1662;49.310;8.134;2024-01-10T01:17:27;21.65;;;13.68;;
3299;SDS011;1662;49.310;8.134;2024-01-10T01:19:52;17.50;;;12.87;;
3299;SDS011;1662;49.310;8.134;2024-01-10T01:22:18;20.00;;;12.60;;
3299;SDS011;1662;49.310;8.134;2024-01-10T01:24:44;17.07;;;11.07;;
3299;SDS011;1662;49.310;8.134;2024-01-10T01:27:09;19.83;;;12.13;;
3299;SDS011;1662;49.310;8.134;2024-01-10T01:29:35;20.60;;;12.67;;
3299;SDS011;1662;49.310;8.134;2024-01-10T01:32:00;17.87;;;11.77;;
3299;SDS011;1662;49.310;8.134;2024-01-10T01:34:26;21.90;;;11.83;;
3299;SDS011;1662;49.310;8.134;2024-01-10T01:36:52;17.43;;;12.00;;
3299;SDS011;1662;49.310;8.134;2024-01-10T01:39:18;18.53;;;13.13;;
3299;SDS011;1662;49.310;8.134;2024-01-10T01:41:43;20.67;;;12.50;;
3299;SDS011;1662;49.310;8.134;2024-01-10T01:44:09;17.97;;;13.17;;
3299;SDS011;1662;49.310;8.134;2024-01-10T01:46:35;19.43;;;12.60;;
3299;SDS011;1662;49.310;8.134;2024-01-10T01:49:00;18.40;;;11.90;;
3299;SDS011;1662;49.310;8.134;2024-01-10T01:51:26;20.00;;;13.67;;
3299;SDS011;1662;49.310;8.134;2024-01-10T01:53:54;21.10;;;13.23;;
3299;SDS011;1662;49.310;8.134;2024-01-10T01:56:20;21.90;;;13.05;;
3299;SDS011;1662;49.310;8.134;2024-01-10T01:58:46;16.77;;;12.73;;
3299;SDS011;1662;49.310;8.134;2024-01-10T02:01:15;20.42;;;12.50;;
3299;SDS011;1662;49.310;8.134;2024-01-10T02:03:41;21.88;;;13.63;;
3299;SDS011;1662;49.310;8.134;2024-01-10T02:06:07;20.83;;;12.37;;
3299;SDS011;1662;49.310;8.134;2024-01-10T02:08:33;17.40;;;13.07;;
3299;SDS011;1662;49.310;8.134;2024-01-10T02:11:00;21.98;;;12.52;;
3299;SDS011;1662;49.310;8.134;2024-01-10T02:13:27;18.42;;;13.07;;
3299;SDS011;1662;49.310;8.134;2024-01-10T02:15:53;21.50;;;12.93;;
3299;SDS011;1662;49.310;8.134;2024-01-10T02:18:19;19.50;;;14.55;;
3299;SDS011;1662;49.310;8.134;2024-01-10T02:20:45;20.30;;;13.07;;
3299;SDS011;1662;49.310;8.134;2024-01-10T02:23:12;18.77;;;12.13;;
3299;SDS011;1662;49.310;8.134;2024-01-10T02:25:38;20.70;;;13.70;;
3299;SDS011;1662;49.310;8.134;2024-01-10T02:28:05;15.10;;;12.55;;
3299;SDS011;1662;49.310;8.134;2024-01-10T02:30:31;18.20;;;11.73;;
3299;SDS011;1662;49.310;8.134;2024-01-10T02:32:56;17.67;;;13.10;;
3299;SDS011;1662;49.310;8.134;2024-01-10T02:35:22;19.63;;;12.23;;
3299;SDS011;1662;49.310;8.134;2024-01-10T02:37:47;22.27;;;13.60;;
3299;SDS011;1662;49.310;8.134;2024-01-10T02:40:16;18.73;;;11.90;;
3299;SDS011;1662;49.310;8.134;2024-01-10T02:42:42;20.70;;;13.40;;
3299;SDS011;1662;49.310;8.134;2024-01-10T02:45:07;24.03;;;14.37;;
3299;SDS011;1662;49.310;8.134;2024-01-10T02:47:34;23.23;;;15.00;;
3299;SDS011;1662;49.310;8.134;2024-01-10T02:49:59;21.60;;;13.80;;
3299;SDS011;1662;49.310;8.134;2024-01-10T02:52:25;21.23;;;13.13;;
3299;SDS011;1662;49.310;8.134;2024-01-10T02:54:51;19.80;;;13.00;;
3299;SDS011;1662;49.310;8.134;2024-01-10T02:57:16;21.67;;;13.83;;
3299;SDS011;1662;49.310;8.134;2024-01-10T02:59:42;18.53;;;12.47;;
3299;SDS011;1662;49.310;8.134;2024-01-10T03:02:07;20.70;;;12.53;;
3299;SDS011;1662;49.310;8.134;2024-01-10T03:04:33;15.82;;;11.00;;
3299;SDS011;1662;49.310;8.134;2024-01-10T03:06:59;19.10;;;12.67;;
3299;SDS011;1662;49.310;8.134;2024-01-10T03:09:24;16.47;;;11.37;;
3299;SDS011;1662;49.310;8.134;2024-01-10T03:11:52;20.75;;;13.75;;
3299;SDS011;1662;49.310;8.134;2024-01-10T03:14:18;18.17;;;11.60;;
3299;SDS011;1662;49.310;8.134;2024-01-10T03:16:43;15.67;;;11.63;;
3299;SDS011;1662;49.310;8.134;2024-01-10T03:19:09;20.13;;;12.10;;
3299;SDS011;1662;49.310;8.134;2024-01-10T03:21:34;19.07;;;13.50;;
3299;SDS011;1662;49.310;8.134;2024-01-10T03:24:00;20.90;;;14.07;;
3299;SDS011;1662;49.310;8.134;2024-01-10T03:26:27;20.30;;;13.70;;
3299;SDS011;1662;49.310;8.134;2024-01-10T03:28:53;18.75;;;13.90;;
3299;SDS011;1662;49.310;8.134;2024-01-10T03:31:20;18.23;;;13.03;;
3299;SDS011;1662;49.310;8.134;2024-01-10T03:33:45;21.48;;;12.60;;
3299;SDS011;1662;49.310;8.134;2024-01-10T03:36:12;23.85;;;14.15;;
3299;SDS011;1662;49.310;8.134;2024-01-10T03:38:39;23.83;;;13.73;;
3299;SDS011;1662;49.310;8.134;2024-01-10T03:41:05;21.23;;;13.10;;
3299;SDS011;1662;49.310;8.134;2024-01-10T03:43:31;19.77;;;13.53;;
3299;SDS011;1662;49.310;8.134;2024-01-10T03:45:57;21.90;;;13.87;;
3299;SDS011;1662;49.310;8.134;2024-01-10T03:48:23;28.55;;;13.70;;
3299;SDS011;1662;49.310;8.134;2024-01-10T03:50:48;21.87;;;13.33;;
3299;SDS011;1662;49.310;8.134;2024-01-10T03:53:14;18.03;;;12.63;;
3299;SDS011;1662;49.310;8.134;2024-01-10T03:55:42;24.13;;;14.30;;
3299;SDS011;1662;49.310;8.134;2024-01-10T03:58:08;26.67;;;14.80;;
3299;SDS011;1662;49.310;8.134;2024-01-10T04:00:33;23.00;;;15.17;;
3299;SDS011;1662;49.310;8.134;2024-01-10T04:03:01;19.92;;;13.23;;
3299;SDS011;1662;49.310;8.134;2024-01-10T04:05:28;24.60;;;14.75;;
3299;SDS011;1662;49.310;8.134;2024-01-10T04:07:54;19.90;;;13.13;;
3299;SDS011;1662;49.310;8.134;2024-01-10T04:10:22;25.50;;;14.32;;
3299;SDS011;1662;49.310;8.134;2024-01-10T04:12:48;23.73;;;14.18;;
3299;SDS011;1662;49.310;8.134;2024-01-10T04:15:14;26.60;;;15.38;;
3299;SDS011;1662;49.310;8.134;2024-01-10T04:17:40;25.27;;;16.03;;
3299;SDS011;1662;49.310;8.134;2024-01-10T04:20:06;27.77;;;15.47;;
3299;SDS011;1662;49.310;8.134;2024-01-10T04:22:32;25.13;;;14.65;;
3299;SDS011;1662;49.310;8.134;2024-01-10T04:24:58;25.00;;;16.10;;
3299;SDS011;1662;49.310;8.134;2024-01-10T04:27:24;25.77;;;16.35;;
3299;SDS011;1662;49.310;8.134;2024-01-10T04:29:54;25.08;;;15.88;;
3299;SDS011;1662;49.310;8.134;2024-01-10T04:32:20;26.83;;;15.33;;
3299;SDS011;1662;49.310;8.134;2024-01-10T04:34:46;26.80;;;16.00;;
3299;SDS011;1662;49.310;8.134;2024-01-10T04:37:11;25.57;;;14.77;;
3299;SDS011;1662;49.310;8.134;2024-01-10T04:39:37;21.10;;;13.33;;
3299;SDS011;1662;49.310;8.134;2024-01-10T04:42:03;27.53;;;15.17;;
3299;SDS011;1662;49.310;8.134;2024-01-10T04:44:29;25.85;;;15.95;;
3299;SDS011;1662;49.310;8.134;2024-01-10T04:46:54;27.50;;;16.20;;
3299;SDS011;1662;49.310;8.134;2024-01-10T04:49:20;20.07;;;14.57;;
3299;SDS011;1662;49.310;8.134;2024-01-10T04:51:46;23.93;;;14.73;;
3299;SDS011;1662;49.310;8.134;2024-01-10T04:54:12;24.63;;;15.52;;
3299;SDS011;1662;49.310;8.134;2024-01-10T04:56:40;24.48;;;15.35;;
3299;SDS011;1662;49.310;8.134;2024-01-10T04:59:05;25.17;;;14.90;;
3299;SDS011;1662;49.310;8.134;2024-01-10T05:01:31;23.63;;;16.17;;
3299;SDS011;1662;49.310;8.134;2024-01-10T05:03:57;26.47;;;15.30;;
3299;SDS011;1662;49.310;8.134;2024-01-10T05:06:22;24.63;;;15.57;;
3299;SDS011;1662;49.310;8.134;2024-01-10T05:08:48;23.37;;;14.90;;
3299;SDS011;1662;49.310;8.134;2024-01-10T05:11:14;23.60;;;15.80;;
3299;SDS011;1662;49.310;8.134;2024-01-10T05:13:41;24.92;;;15.57;;
3299;SDS011;1662;49.310;8.134;2024-01-10T05:16:07;33.33;;;15.35;;
3299;SDS011;1662;49.310;8.134;2024-01-10T05:18:32;33.43;;;17.40;;
3299;SDS011;1662;49.310;8.134;2024-01-10T05:20:58;22.37;;;14.70;;
3299;SDS011;1662;49.310;8.134;2024-01-10T05:23:25;24.80;;;14.80;;
3299;SDS011;1662;49.310;8.134;2024-01-10T05:25:51;23.10;;;14.77;;
3299;SDS011;1662;49.310;8.134;2024-01-10T05:28:16;28.77;;;16.80;;
3299;SDS011;1662;49.310;8.134;2024-01-10T05:30:42;31.50;;;17.00;;
3299;SDS011;1662;49.310;8.134;2024-01-10T05:33:09;26.70;;;16.75;;
3299;SDS011;1662;49.310;8.134;2024-01-10T05:35:35;26.17;;;16.20;;
3299;SDS011;1662;49.310;8.134;2024-01-10T05:38:03;26.70;;;16.80;;
3299;SDS011;1662;49.310;8.134;2024-01-10T05:40:29;32.60;;;17.60;;
3299;SDS011;1662;49.310;8.134;2024-01-10T05:42:57;24.40;;;17.75;;
3299;SDS011;1662;49.310;8.134;2024-01-10T05:45:26;30.55;;;18.33;;
3299;SDS011;1662;49.310;8.134;2024-01-10T05:47:53;25.00;;;16.58;;
3299;SDS011;1662;49.310;8.134;2024-01-10T05:50:21;28.95;;;17.15;;
3299;SDS011;1662;49.310;8.134;2024-01-10T05:52:47;25.07;;;15.93;;
3299;SDS011;1662;49.310;8.134;2024-01-10T05:55:13;28.57;;;16.57;;
3299;SDS011;1662;49.310;8.134;2024-01-10T05:57:39;27.75;;;17.00;;
3299;SDS011;1662;49.310;8.134;2024-01-10T06:00:05;25.23;;;15.57;;
3299;SDS011;1662;49.310;8.134;2024-01-10T06:02:37;29.38;;;17.98;;
3299;SDS011;1662;49.310;8.134;2024-01-10T06:07:33;29.45;;;16.55;;
3299;SDS011;1662;49.310;8.134;2024-01-10T06:09:59;26.60;;;16.58;;
3299;SDS011;1662;49.310;8.134;2024-01-10T06:12:26;26.17;;;15.05;;
3299;SDS011;1662;49.310;8.134;2024-01-10T06:14:52;21.50;;;15.83;;
3299;SDS011;1662;49.310;8.134;2024-01-10T06:17:17;28.33;;;17.90;;
3299;SDS011;1662;49.310;8.134;2024-01-10T06:19:43;32.90;;;17.02;;
3299;SDS011;1662;49.310;8.134;2024-01-10T06:22:09;30.50;;;19.20;;
3299;SDS011;1662;49.310;8.134;2024-01-10T06:24:36;27.40;;;17.27;;
3299;SDS011;1662;49.310;8.134;2024-01-10T06:27:06;31.83;;;19.10;;
3299;SDS011;1662;49.310;8.134;2024-01-10T06:29:35;27.13;;;17.48;;
3299;SDS011;1662;49.310;8.134;2024-01-10T06:32:01;27.58;;;15.93;;
3299;SDS011;1662;49.310;8.134;2024-01-10T06:34:31;33.40;;;18.55;;
3299;SDS011;1662;49.310;8.134;2024-01-10T06:36:57;25.42;;;17.35;;
3299;SDS011;1662;49.310;8.134;2024-01-10T06:39:26;28.55;;;17.05;;
3299;SDS011;1662;49.310;8.134;2024-01-10T06:41:52;29.80;;;18.27;;
3299;SDS011;1662;49.310;8.134;2024-01-10T06:44:18;29.50;;;19.03;;
3299;SDS011;1662;49.310;8.134;2024-01-10T06:46:44;29.03;;;17.30;;
3299;SDS011;1662;49.310;8.134;2024-01-10T06:49:10;29.25;;;17.63;;
3299;SDS011;1662;49.310;8.134;2024-01-10T06:51:36;27.83;;;17.45;;
3299;SDS011;1662;49.310;8.134;2024-01-10T06:54:02;34.50;;;18.45;;
3299;SDS011;1662;49.310;8.134;2024-01-10T06:56:29;36.42;;;18.70;;
3299;SDS011;1662;49.310;8.134;2024-01-10T06:58:55;35.92;;;18.80;;
3299;SDS011;1662;49.310;8.134;2024-01-10T07:01:25;32.42;;;17.35;;
3299;SDS011;1662;49.310;8.134;2024-01-10T07:03:52;24.63;;;16.33;;
3299;SDS011;1662;49.310;8.134;2024-01-10T07:06:18;28.05;;;17.98;;
3299;SDS011;1662;49.310;8.134;2024-01-10T07:08:43;29.33;;;17.20;;
3299;SDS011;1662;49.310;8.134;2024-01-10T07:11:12;30.23;;;17.92;;
3299;SDS011;1662;49.310;8.134;2024-01-10T07:13:38;29.10;;;18.30;;
3299;SDS011;1662;49.310;8.134;2024-01-10T07:16:04;26.83;;;17.40;;
3299;SDS011;1662;49.310;8.134;2024-01-10T07:18:30;30.80;;;17.83;;
3299;SDS011;1662;49.310;8.134;2024-01-10T07:20:56;26.00;;;17.73;;
3299;SDS011;1662;49.310;8.134;2024-01-10T07:23:21;31.13;;;17.40;;
3299;SDS011;1662;49.310;8.134;2024-01-10T07:25:50;33.88;;;19.30;;
3299;SDS011;1662;49.310;8.134;2024-01-10T07:28:16;33.97;;;18.40;;
3299;SDS011;1662;49.310;8.134;2024-01-10T07:30:42;33.58;;;18.08;;
3299;SDS011;1662;49.310;8.134;2024-01-10T07:33:09;29.80;;;18.88;;
3299;SDS011;1662;49.310;8.134;2024-01-10T07:35:35;32.95;;;19.33;;
3299;SDS011;1662;49.310;8.134;2024-01-10T07:38:03;37.60;;;20.67;;
3299;SDS011;1662;49.310;8.134;2024-01-10T07:40:29;31.60;;;19.30;;
3299;SDS011;1662;49.310;8.134;2024-01-10T07:42:54;28.07;;;17.50;;
3299;SDS011;1662;49.310;8.134;2024-01-10T07:45:23;27.70;;;18.23;;
3299;SDS011;1662;49.310;8.134;2024-01-10T07:47:48;34.88;;;18.75;;
3299;SDS011;1662;49.310;8.134;2024-01-10T07:50:14;30.93;;;19.03;;
3299;SDS011;1662;49.310;8.134;2024-01-10T07:52:40;32.00;;;18.50;;
3299;SDS011;1662;49.310;8.134;2024-01-10T07:55:07;25.15;;;17.40;;
3299;SDS011;1662;49.310;8.134;2024-01-10T07:57:33;28.88;;;17.88;;
3299;SDS011;1662;49.310;8.134;2024-01-10T07:59:59;29.80;;;18.10;;
3299;SDS011;1662;49.310;8.134;2024-01-10T08:02:25;28.23;;;18.43;;
3299;SDS011;1662;49.310;8.134;2024-01-10T08:04:51;28.07;;;17.43;;
3299;SDS011;1662;49.310;8.134;2024-01-10T08:07:17;35.05;;;19.92;;
3299;SDS011;1662;49.310;8.134;2024-01-10T08:09:44;25.60;;;16.95;;
3299;SDS011;1662;49.310;8.134;2024-01-10T08:12:10;32.83;;;18.80;;
3299;SDS011;1662;49.310;8.134;2024-01-10T08:14:36;34.83;;;18.55;;
3299;SDS011;1662;49.310;8.134;2024-01-10T08:17:03;32.10;;;18.67;;
3299;SDS011;1662;49.310;8.134;2024-01-10T08:19:28;28.83;;;18.77;;
3299;SDS011;1662;49.310;8.134;2024-01-10T08:21:54;31.13;;;17.90;;
3299;SDS011;1662;49.310;8.134;2024-01-10T08:24:20;27.33;;;17.70;;
3299;SDS011;1662;49.310;8.134;2024-01-10T08:26:46;29.63;;;17.47;;
3299;SDS011;1662;49.310;8.134;2024-01-10T08:29:16;30.10;;;18.42;;
3299;SDS011;1662;49.310;8.134;2024-01-10T08:31:43;30.10;;;18.20;;
3299;SDS011;1662;49.310;8.134;2024-01-10T08:34:09;28.80;;;16.80;;
3299;SDS011;1662;49.310;8.134;2024-01-10T08:36:34;26.37;;;16.40;;
3299;SDS011;1662;49.310;8.134;2024-01-10T08:39:00;32.87;;;18.87;;
3299;SDS011;1662;49.310;8.134;2024-01-10T08:41:28;29.02;;;17.05;;
3299;SDS011;1662;49.310;8.134;2024-01-10T08:43:53;28.13;;;16.60;;
3299;SDS011;1662;49.310;8.134;2024-01-10T08:46:19;31.70;;;18.97;;
3299;SDS011;1662;49.310;8.134;2024-01-10T08:48:45;33.30;;;18.50;;
3299;SDS011;1662;49.310;8.134;2024-01-10T08:51:12;28.85;;;18.40;;
3299;SDS011;1662;49.310;8.134;2024-01-10T08:53:41;30.60;;;18.73;;
3299;SDS011;1662;49.310;8.134;2024-01-10T08:56:07;32.43;;;20.00;;
3299;SDS011;1662;49.310;8.134;2024-01-10T08:58:33;28.75;;;16.92;;
3299;SDS011;1662;49.310;8.134;2024-01-10T09:00:58;57.73;;;31.97;;
3299;SDS011;1662;49.310;8.134;2024-01-10T09:03:24;64.87;;;34.37;;
3299;SDS011;1662;49.310;8.134;2024-01-10T09:05:49;35.13;;;23.03;;
3299;SDS011;1662;49.310;8.134;2024-01-10T09:08:15;33.03;;;22.13;;
3299;SDS011;1662;49.310;8.134;2024-01-10T09:10:41;35.67;;;18.87;;
3299;SDS011;1662;49.310;8.134;2024-01-10T09:13:07;27.00;;;18.50;;
3299;SDS011;1662;49.310;8.134;2024-01-10T09:15:32;27.63;;;17.20;;
3299;SDS011;1662;49.310;8.134;2024-01-10T09:17:58;30.33;;;18.13;;
3299;SDS011;1662;49.310;8.134;2024-01-10T09:20:23;27.50;;;17.60;;
3299;SDS011;1662;49.310;8.134;2024-01-10T09:22:49;28.23;;;16.43;;
3299;SDS011;1662;49.310;8.134;2024-01-10T09:25:15;30.35;;;17.80;;
3299;SDS011;1662;49.310;8.134;2024-01-10T09:27:41;32.00;;;19.23;;
3299;SDS011;1662;49.310;8.134;2024-01-10T09:30:08;33.13;;;19.58;;
3299;SDS011;1662;49.310;8.134;2024-01-10T09:32:34;24.30;;;15.70;;
3299;SDS011;1662;49.310;8.134;2024-01-10T09:35:00;16.60;;;12.50;;
3299;SDS011;1662;49.310;8.134;2024-01-10T09:37:26;33.20;;;20.33;;
3299;SDS011;1662;49.310;8.134;2024-01-10T09:39:52;31.63;;;19.40;;
3299;SDS011;1662;49.310;8.134;2024-01-10T09:42:18;29.98;;;18.25;;
3299;SDS011;1662;49.310;8.134;2024-01-10T09:45:07;28.52;;;18.00;;
3299;SDS011;1662;49.310;8.134;2024-01-10T09:47:35;26.85;;;16.27;;
3299;SDS011;1662;49.310;8.134;2024-01-10T09:50:02;30.20;;;18.40;;
3299;SDS011;1662;49.310;8.134;2024-01-10T09:52:28;25.40;;;17.30;;
3299;SDS011;1662;49.310;8.134;2024-01-10T09:55:04;26.83;;;17.50;;
3299;SDS011;1662;49.310;8.134;2024-01-10T09:57:30;24.20;;;16.83;;
3299;SDS011;1662;49.310;8.134;2024-01-10T09:59:56;28.10;;;19.30;;
3299;SDS011;1662;49.310;8.134;2024-01-10T10:02:21;31.30;;;17.63;;
3299;SDS011;1662;49.310;8.134;2024-01-10T10:05:12;27.58;;;18.75;;
3299;SDS011;1662;49.310;8.134;2024-01-10T10:07:44;29.08;;;18.23;;
3299;SDS011;1662;49.310;8.134;2024-01-10T10:10:14;30.83;;;17.25;;
3299;SDS011;1662;49.310;8.134;2024-01-10T10:12:43;26.48;;;17.42;;
3299;SDS011;1662;49.310;8.134;2024-01-10T10:15:22;31.90;;;19.45;;
3299;SDS011;1662;49.310;8.134;2024-01-10T10:17:49;24.48;;;16.02;;
3299;SDS011;1662;49.310;8.134;2024-01-10T10:23:01;27.73;;;18.50;;
3299;SDS011;1662;49.310;8.134;2024-01-10T10:25:35;26.33;;;16.27;;
3299;SDS011;1662;49.310;8.134;2024-01-10T10:28:03;29.05;;;17.38;;
3299;SDS011;1662;49.310;8.134;2024-01-10T10:30:32;33.60;;;20.88;;
3299;SDS011;1662;49.310;8.134;2024-01-10T10:32:59;34.10;;;21.85;;
3299;SDS011;1662;49.310;8.134;2024-01-10T10:35:25;35.35;;;19.17;;
3299;SDS011;1662;49.310;8.134;2024-01-10T10:37:51;25.57;;;14.83;;
3299;SDS011;1662;49.310;8.134;2024-01-10T10:40:20;36.50;;;26.20;;
3299;SDS011;1662;49.310;8.134;2024-01-10T10:42:46;33.20;;;21.50;;
3299;SDS011;1662;49.310;8.134;2024-01-10T10:45:22;26.83;;;19.17;;
3299;SDS011;1662;49.310;8.134;2024-01-10T10:47:58;26.55;;;15.98;;
3299;SDS011;1662;49.310;8.134;2024-01-10T10:50:27;34.20;;;20.05;;
3299;SDS011;1662;49.310;8.134;2024-01-10T10:52:53;26.85;;;17.20;;
3299;SDS011;1662;49.310;8.134;2024-01-10T10:55:20;28.08;;;19.80;;
3299;SDS011;1662;49.310;8.134;2024-01-10T10:57:48;29.98;;;18.65;;
3299;SDS011;1662;49.310;8.134;2024-01-10T11:00:17;33.08;;;21.55;;
3299;SDS011;1662;49.310;8.134;2024-01-10T11:02:45;30.30;;;19.75;;
3299;SDS011;1662;49.310;8.134;2024-01-10T11:05:11;34.80;;;20.38;;
3299;SDS011;1662;49.310;8.134;2024-01-10T11:07:40;27.70;;;16.63;;
3299;SDS011;1662;49.310;8.134;2024-01-10T11:10:30;25.25;;;17.63;;
3299;SDS011;1662;49.310;8.134;2024-01-10T11:15:52;28.65;;;16.40;;
3299;SDS011;1662;49.310;8.134;2024-01-10T11:24:08;29.88;;;19.17;;
3299;SDS011;1662;49.310;8.134;2024-01-10T11:26:36;30.25;;;19.95;;
3299;SDS011;1662;49.310;8.134;2024-01-10T11:29:02;26.00;;;17.65;;
3299;SDS011;1662;49.310;8.134;2024-01-10T11:31:30;26.98;;;19.02;;
3299;SDS011;1662;49.310;8.134;2024-01-10T11:33:57;28.30;;;19.83;;
3299;SDS011;1662;49.310;8.134;2024-01-10T11:36:23;36.85;;;22.95;;
3299;SDS011;1662;49.310;8.134;2024-01-10T11:41:22;29.40;;;20.75;;
3299;SDS011;1662;49.310;8.134;2024-01-10T11:46:55;30.88;;;19.20;;
3299;SDS011;1662;49.310;8.134;2024-01-10T11:49:20;36.25;;;23.35;;
3299;SDS011;1662;49.310;8.134;2024-01-10T11:51:47;30.75;;;20.30;;
3299;SDS011;1662;49.310;8.134;2024-01-10T11:57:39;32.15;;;21.63;;
3299;SDS011;1662;49.310;8.134;2024-01-10T11:59:58;30.13;;;19.60;;
3299;SDS011;1662;49.310;8.134;2024-01-10T12:02:25;28.15;;;19.85;;
3299;SDS011;1662;49.310;8.134;2024-01-10T12:04:53;26.02;;;17.88;;
3299;SDS011;1662;49.310;8.134;2024-01-10T12:07:19;30.35;;;19.85;;
3299;SDS011;1662;49.310;8.134;2024-01-10T12:09:45;29.80;;;19.60;;
3299;SDS011;1662;49.310;8.134;2024-01-10T12:12:14;30.75;;;21.38;;
3299;SDS011;1662;49.310;8.134;2024-01-10T12:14:41;28.02;;;18.17;;
3299;SDS011;1662;49.310;8.134;2024-01-10T12:17:09;36.30;;;23.60;;
3299;SDS011;1662;49.310;8.134;2024-01-10T12:19:35;30.07;;;20.97;;
3299;SDS011;1662;49.310;8.134;2024-01-10T12:22:02;37.22;;;21.70;;
3299;SDS011;1662;49.310;8.134;2024-01-10T12:24:29;26.05;;;18.42;;
3299;SDS011;1662;49.310;8.134;2024-01-10T12:26:56;33.92;;;20.20;;
3299;SDS011;1662;49.310;8.134;2024-01-10T12:29:22;36.67;;;22.90;;
3299;SDS011;1662;49.310;8.134;2024-01-10T12:31:50;36.08;;;23.90;;
3299;SDS011;1662;49.310;8.134;2024-01-10T12:34:16;24.35;;;16.70;;
3299;SDS011;1662;49.310;8.134;2024-01-10T12:36:42;34.83;;;22.30;;
3299;SDS011;1662;49.310;8.134;2024-01-10T12:39:09;34.92;;;21.70;;
3299;SDS011;1662;49.310;8.134;2024-01-10T12:41:36;35.13;;;25.27;;
3299;SDS011;1662;49.310;8.134;2024-01-10T12:44:02;30.95;;;22.05;;
3299;SDS011;1662;49.310;8.134;2024-01-10T12:46:30;31.50;;;20.60;;
3299;SDS011;1662;49.310;8.134;2024-01-10T12:49:00;27.45;;;19.15;;
3299;SDS011;1662;49.310;8.134;2024-01-10T12:51:27;31.83;;;20.20;;
3299;SDS011;1662;49.310;8.134;2024-01-10T12:53:57;28.67;;;20.92;;
3299;SDS011;1662;49.310;8.134;2024-01-10T12:56:23;42.50;;;26.27;;
3299;SDS011;1662;49.310;8.134;2024-01-10T12:58:49;31.08;;;21.40;;
3299;SDS011;1662;49.310;8.134;2024-01-10T13:01:15;44.67;;;24.87;;
3299;SDS011;1662;49.310;8.134;2024-01-10T13:03:41;44.80;;;27.90;;
3299;SDS011;1662;49.310;8.134;2024-01-10T13:06:07;27.27;;;18.90;;
3299;SDS011;1662;49.310;8.134;2024-01-10T13:08:34;32.97;;;20.30;;
3299;SDS011;1662;49.310;8.134;2024-01-10T13:11:00;31.17;;;20.50;;
3299;SDS011;1662;49.310;8.134;2024-01-10T13:13:25;38.20;;;25.13;;
3299;SDS011;1662;49.310;8.134;2024-01-10T13:15:53;41.57;;;26.00;;
3299;SDS011;1662;49.310;8.134;2024-01-10T13:18:20;42.97;;;27.17;;
3299;SDS011;1662;49.310;8.134;2024-01-10T13:20:46;35.20;;;22.30;;
3299;SDS011;1662;49.310;8.134;2024-01-10T13:23:12;33.90;;;21.27;;
3299;SDS011;1662;49.310;8.134;2024-01-10T13:25:38;36.53;;;20.70;;
3299;SDS011;1662;49.310;8.134;2024-01-10T13:28:04;26.03;;;19.63;;
3299;SDS011;1662;49.310;8.134;2024-01-10T13:30:30;29.98;;;19.88;;
3299;SDS011;1662;49.310;8.134;2024-01-10T13:32:55;34.67;;;21.93;;
3299;SDS011;1662;49.310;8.134;2024-01-10T13:35:23;35.45;;;22.80;;
3299;SDS011;1662;49.310;8.134;2024-01-10T13:37:49;28.75;;;19.17;;
3299;SDS011;1662;49.310;8.134;2024-01-10T13:40:14;32.00;;;20.43;;
3299;SDS011;1662;49.310;8.134;2024-01-10T13:42:41;34.47;;;20.70;;
3299;SDS011;1662;49.310;8.134;2024-01-10T13:45:08;31.48;;;20.38;;
3299;SDS011;1662;49.310;8.134;2024-01-10T13:47:37;41.20;;;23.77;;
3299;SDS011;1662;49.310;8.134;2024-01-10T13:50:04;28.88;;;20.15;;
3299;SDS011;1662;49.310;8.134;2024-01-10T13:52:33;29.17;;;18.80;;
3299;SDS011;1662;49.310;8.134;2024-01-10T13:54:59;29.30;;;20.17;;
3299;SDS011;1662;49.310;8.134;2024-01-10T13:57:25;33.47;;;23.02;;
3299;SDS011;1662;49.310;8.134;2024-01-10T13:59:52;31.50;;;20.75;;
3299;SDS011;1662;49.310;8.134;2024-01-10T14:02:20;30.52;;;20.98;;
3299;SDS011;1662;49.310;8.134;2024-01-10T14:04:49;31.98;;;22.00;;
3299;SDS011;1662;49.310;8.134;2024-01-10T14:07:15;33.90;;;22.17;;
3299;SDS011;1662;49.310;8.134;2024-01-10T14:09:43;29.97;;;19.83;;
3299;SDS011;1662;49.310;8.134;2024-01-10T14:12:10;35.20;;;23.45;;
3299;SDS011;1662;49.310;8.134;2024-01-10T14:14:36;30.05;;;20.25;;
3299;SDS011;1662;49.310;8.134;2024-01-10T14:17:02;32.00;;;21.20;;
3299;SDS011;1662;49.310;8.134;2024-01-10T14:19:29;27.10;;;17.83;;
3299;SDS011;1662;49.310;8.134;2024-01-10T14:21:54;26.57;;;20.00;;
3299;SDS011;1662;49.310;8.134;2024-01-10T14:24:20;28.10;;;18.63;;
3299;SDS011;1662;49.310;8.134;2024-01-10T14:26:46;32.00;;;20.17;;
3299;SDS011;1662;49.310;8.134;2024-01-10T14:29:12;27.67;;;19.75;;
3299;SDS011;1662;49.310;8.134;2024-01-10T14:31:37;29.30;;;21.60;;
3299;SDS011;1662;49.310;8.134;2024-01-10T14:34:04;33.13;;;21.88;;
3299;SDS011;1662;49.310;8.134;2024-01-10T14:36:31;30.35;;;21.75;;
3299;SDS011;1662;49.310;8.134;2024-01-10T14:38:56;47.97;;;27.60;;
3299;SDS011;1662;49.310;8.134;2024-01-10T14:41:22;32.63;;;22.23;;
3299;SDS011;1662;49.310;8.134;2024-01-10T14:43:48;25.90;;;19.00;;
3299;SDS011;1662;49.310;8.134;2024-01-10T14:46:13;30.87;;;21.30;;
3299;SDS011;1662;49.310;8.134;2024-01-10T14:48:39;23.60;;;18.97;;
3299;SDS011;1662;49.310;8.134;2024-01-10T14:51:05;30.27;;;20.93;;
3299;SDS011;1662;49.310;8.134;2024-01-10T14:53:30;28.90;;;21.43;;
3299;SDS011;1662;49.310;8.134;2024-01-10T14:55:56;29.23;;;19.63;;
3299;SDS011;1662;49.310;8.134;2024-01-10T14:58:21;33.47;;;21.97;;
3299;SDS011;1662;49.310;8.134;2024-01-10T15:00:47;32.00;;;21.27;;
3299;SDS011;1662;49.310;8.134;2024-01-10T15:03:13;28.50;;;20.30;;
3299;SDS011;1662;49.310;8.134;2024-01-10T15:05:40;32.95;;;20.40;;
3299;SDS011;1662;49.310;8.134;2024-01-10T15:08:06;28.58;;;20.05;;